Time;durP1;ratioP1;P1;durP2;ratioP2;P2;SDS_P1;SDS_P2;PMS_P1;PMS_P2;Temp;Humidity;BMP_temperature;BMP_pressure;BME280_temperature;BME280_humidity;BME280_pressure;Samples;Min_cycle;Max_cycle;Signal;HPM_P1;HPM_P2
2023/12/23 00:00:53;;;;;;;10.13;2.60;;;;;;;16.90;100.00;100326.38;10565237;28;20056;-79
2023/12/23 00:06:15;;;;;;;13.65;5.63;;;;;;;17.16;100.00;100328.59;10580195;27;20048;-79
2023/12/23 00:11:38;;;;;;;14.82;5.85;;;;;;;17.07;100.00;100335.84;10551433;28;20116;-80
2023/12/23 00:17:02;;;;;;;10.40;5.18;;;;;;;16.87;100.00;100305.97;10589846;27;20116;-78
2023/12/23 00:22:25;;;;;;;10.82;3.40;;;;;;;16.70;100.00;100324.94;10593090;27;20057;-79
2023/12/23 00:27:47;;;;;;;11.38;4.30;;;;;;;16.42;100.00;100328.00;10606658;27;20070;-79
2023/12/23 00:33:11;;;;;;;10.25;2.72;;;;;;;16.22;100.00;100320.31;10592918;27;20058;-79
2023/12/23 00:38:34;;;;;;;14.98;6.20;;;;;;;16.09;100.00;100316.94;10553723;28;20051;-78
2023/12/23 00:43:56;;;;;;;12.48;7.13;;;;;;;15.95;100.00;100322.47;10585178;27;20036;-79
2023/12/23 00:49:20;;;;;;;9.65;3.90;;;;;;;16.04;100.00;100333.91;10564220;27;20063;-79
2023/12/23 00:54:42;;;;;;;6.40;2.35;;;;;;;16.01;100.00;100345.50;10574532;27;20039;-81
2023/12/23 01:00:06;;;;;;;5.55;2.08;;;;;;;16.03;100.00;100356.09;10591376;27;20567;-80
2023/12/23 01:05:30;;;;;;;7.75;2.28;;;;;;;16.13;100.00;100347.97;10591271;27;20104;-79
2023/12/23 01:10:52;;;;;;;9.38;2.90;;;;;;;16.08;100.00;100354.28;10591310;27;20066;-77
2023/12/23 01:16:15;;;;;;;6.45;2.58;;;;;;;16.03;100.00;100348.09;10602155;27;20047;-78
2023/12/23 01:21:38;;;;;;;13.75;4.05;;;;;;;15.82;100.00;100349.25;10603097;27;20043;-80
2023/12/23 01:27:01;;;;;;;7.93;3.40;;;;;;;15.82;100.00;100349.25;10603126;27;20051;-80
2023/12/23 01:32:23;;;;;;;10.80;3.55;;;;;;;15.79;100.00;100347.53;10584752;27;20058;-80
2023/12/23 01:37:47;;;;;;;10.75;2.80;;;;;;;15.88;100.00;100347.41;10547827;28;20055;-80
2023/12/23 01:43:11;;;;;;;6.78;2.60;;;;;;;15.91;100.00;100342.06;10580750;27;20134;-78
2023/12/23 01:48:38;;;;;;;7.28;2.83;;;;;;;15.69;100.00;100355.63;10589632;27;20043;-80
2023/12/23 01:54:05;;;;;;;7.13;2.90;;;;;;;15.28;100.00;100356.06;10589348;27;20476;-80
2023/12/23 01:59:28;;;;;;;6.63;2.70;;;;;;;15.12;100.00;100380.13;10566235;27;20051;-79
2023/12/23 02:04:51;;;;;;;10.23;2.83;;;;;;;15.13;100.00;100378.38;10578304;27;20127;-80
2023/12/23 02:10:16;;;;;;;7.93;2.60;;;;;;;15.23;100.00;100384.50;10586712;27;20039;-80
2023/12/23 02:15:39;;;;;;;14.50;3.17;;;;;;;15.09;100.00;100377.53;10576019;27;20047;-79
2023/12/23 02:21:04;;;;;;;5.75;3.50;;;;;;;14.99;100.00;100369.63;10573814;27;20052;-78
2023/12/23 02:26:31;;;;;;;13.32;4.65;;;;;;;15.02;100.00;100367.84;10569886;27;20062;-78
2023/12/23 02:31:55;;;;;;;9.18;3.40;;;;;;;14.85;100.00;100363.53;10574348;28;20075;-79
2023/12/23 02:37:19;;;;;;;13.25;3.42;;;;;;;14.40;100.00;100362.09;10566677;28;20512;-79
2023/12/23 02:42:42;;;;;;;8.23;3.45;;;;;;;14.53;100.00;100370.00;10574837;27;20043;-80
2023/12/23 02:48:05;;;;;;;11.30;4.38;;;;;;;14.71;100.00;100383.13;10575864;28;20043;-80
2023/12/23 02:53:29;;;;;;;11.23;3.20;;;;;;;14.92;100.00;100408.66;10580418;28;20047;-79
2023/12/23 02:58:52;;;;;;;9.40;3.45;;;;;;;15.27;100.00;100421.66;10591025;27;20063;-78
2023/12/23 03:04:14;;;;;;;11.40;3.70;;;;;;;15.10;100.00;100423.56;10585971;28;20055;-79
2023/12/23 03:09:38;;;;;;;11.95;3.45;;;;;;;15.30;100.00;100431.38;10588865;27;20047;-78
2023/12/23 03:15:01;;;;;;;7.57;2.83;;;;;;;15.82;100.00;100434.44;10559609;27;20040;-79
2023/12/23 03:20:26;;;;;;;10.00;3.50;;;;;;;16.23;100.00;100433.94;10594807;27;20150;-79
2023/12/23 03:25:50;;;;;;;8.80;3.25;;;;;;;16.37;100.00;100445.31;10582655;27;20135;-78
2023/12/23 03:31:12;;;;;;;8.13;2.88;;;;;;;16.57;100.00;100437.03;10566183;27;20718;-79
2023/12/23 03:36:35;;;;;;;13.65;4.38;;;;;;;16.39;100.00;100430.19;10569524;27;20043;-79
2023/12/23 03:41:59;;;;;;;9.85;2.83;;;;;;;16.16;100.00;100449.13;10582975;27;20043;-79
2023/12/23 03:47:21;;;;;;;9.85;3.30;;;;;;;15.86;100.00;100453.03;10589015;27;20130;-81
2023/12/23 03:52:44;;;;;;;13.85;4.00;;;;;;;15.81;100.00;100465.53;10574931;28;20141;-80
2023/12/23 03:58:08;;;;;;;11.65;3.35;;;;;;;15.83;100.00;100477.00;10579277;27;20371;-80
2023/12/23 04:03:31;;;;;;;11.93;3.10;;;;;;;15.63;100.00;100483.44;10579638;27;20374;-80
2023/12/23 04:08:53;;;;;;;11.20;3.42;;;;;;;15.34;100.00;100502.28;10571191;28;20051;-79
2023/12/23 04:14:18;;;;;;;8.48;3.13;;;;;;;15.09;100.00;100505.13;10568002;27;20039;-80
2023/12/23 04:19:40;;;;;;;8.60;2.83;;;;;;;14.96;100.00;100514.09;10592050;27;20040;-80
2023/12/23 04:25:03;;;;;;;13.45;3.22;;;;;;;14.94;100.00;100515.88;10567111;27;20055;-79
2023/12/23 04:30:29;;;;;;;13.52;3.05;;;;;;;14.93;100.00;100511.44;10569009;27;20048;-81
2023/12/23 04:35:52;;;;;;;6.55;2.88;;;;;;;14.80;100.00;100523.03;10551648;27;20168;-80
2023/12/23 04:41:14;;;;;;;9.57;3.45;;;;;;;14.78;100.00;100530.13;10586415;27;20039;-80
2023/12/23 04:46:39;;;;;;;8.98;3.90;;;;;;;14.77;100.00;100552.25;10559070;27;20048;-82
2023/12/23 04:52:01;;;;;;;17.20;4.40;;;;;;;15.01;100.00;100559.25;10521075;28;20051;-81
2023/12/23 04:57:24;;;;;;;13.48;3.90;;;;;;;15.47;100.00;100567.78;10518024;28;20059;-80
2023/12/23 05:02:48;;;;;;;9.50;3.90;;;;;;;15.67;100.00;100578.31;10519050;28;20040;-79
2023/12/23 05:08:10;;;;;;;10.85;4.13;;;;;;;15.44;100.00;100589.09;10531027;28;20052;-79
2023/12/23 05:13:33;;;;;;;11.90;3.22;;;;;;;15.50;100.00;100594.38;10534854;28;20065;-80
2023/12/23 05:18:57;;;;;;;18.98;6.15;;;;;;;15.74;100.00;100611.97;10520584;28;20071;-80
2023/12/23 05:24:19;;;;;;;8.07;3.17;;;;;;;16.05;100.00;100609.94;10534172;28;20052;-80
2023/12/23 05:29:41;;;;;;;8.43;3.28;;;;;;;16.17;100.00;100615.13;10518922;28;20044;-78
2023/12/23 05:35:06;;;;;;;12.80;3.33;;;;;;;16.44;100.00;100620.19;10520099;28;20046;-80
2023/12/23 05:40:29;;;;;;;8.25;3.30;;;;;;;16.51;100.00;100635.22;10491701;28;20052;-80
2023/12/23 05:45:51;;;;;;;15.07;6.25;;;;;;;16.63;100.00;100648.44;10519241;28;20052;-80
2023/12/23 05:51:15;;;;;;;11.88;3.70;;;;;;;16.66;100.00;100650.19;10557475;28;20262;-81
2023/12/23 05:56:38;;;;;;;11.00;3.83;;;;;;;16.93;100.00;100649.88;10577279;27;20043;-80
2023/12/23 06:02:01;;;;;;;14.48;3.92;;;;;;;17.19;100.00;100638.88;10575647;27;20052;-80
2023/12/23 06:07:26;;;;;;;15.77;5.57;;;;;;;17.12;100.00;100650.53;10578486;27;20050;-79
2023/12/23 06:12:48;;;;;;;14.40;4.75;;;;;;;17.36;100.00;100652.84;10582539;27;20043;-80
2023/12/23 06:18:10;;;;;;;15.82;5.90;;;;;;;17.64;100.00;100658.72;10555277;27;20043;-78
2023/12/23 06:23:35;;;;;;;18.33;7.25;;;;;;;17.92;100.00;100654.69;10599327;27;20039;-79
2023/12/23 06:28:57;;;;;;;18.25;11.60;;;;;;;18.19;100.00;100671.16;10578849;27;20035;-80
2023/12/23 06:34:19;;;;;;;15.05;10.52;;;;;;;18.49;100.00;100667.09;10590413;28;20266;-79
2023/12/23 06:39:43;;;;;;;13.98;5.65;;;;;;;18.06;100.00;100685.63;10572291;28;20101;-79
2023/12/23 06:45:07;;;;;;;11.55;6.18;;;;;;;18.77;100.00;100680.88;10563241;27;20056;-79
2023/12/23 06:50:30;;;;;;;10.60;4.50;;;;;;;18.63;100.00;100670.44;10585713;27;20304;-78
2023/12/23 06:55:54;;;;;;;15.27;4.75;;;;;;;18.30;100.00;100667.44;10589709;27;20054;-81
2023/12/23 07:01:16;;;;;;;11.65;6.13;;;;;;;20.04;100.00;100661.09;10594604;27;20047;-79
2023/12/23 07:06:39;;;;;;;15.63;5.72;;;;;;;20.19;100.00;100684.84;10594788;27;20088;-79
2023/12/23 07:12:04;;;;;;;8.57;3.38;;;;;;;20.83;100.00;100684.06;10605310;27;20054;-79
2023/12/23 07:17:26;;;;;;;8.98;3.40;;;;;;;23.73;88.86;100693.16;10600963;27;20487;-80
2023/12/23 07:22:49;;;;;;;8.07;2.30;;;;;;;25.41;69.95;100684.97;10593986;27;20122;-80
2023/12/23 07:28:13;;;;;;;9.52;3.60;;;;;;;24.44;75.86;100697.44;10593500;27;20097;-81
2023/12/23 07:33:36;;;;;;;7.68;3.17;;;;;;;25.41;71.24;100692.19;10600541;27;20047;-79
2023/12/23 07:38:58;;;;;;;9.70;3.63;;;;;;;24.44;72.08;100697.44;10555630;27;20059;-79
2023/12/23 07:44:22;;;;;;;13.10;4.97;;;;;;;24.38;77.10;100707.63;10584616;27;20408;-80
2023/12/23 07:49:45;;;;;;;8.27;3.30;;;;;;;23.37;77.28;100705.31;10608511;27;20430;-79
2023/12/23 07:55:08;;;;;;;7.75;4.70;;;;;;;21.46;96.36;100721.63;10595399;27;20492;-80
2023/12/23 08:00:32;;;;;;;5.00;2.63;;;;;;;21.13;97.94;100719.03;10575666;27;20065;-81
2023/12/23 08:05:54;;;;;;;8.35;2.50;;;;;;;22.62;85.98;100709.84;10574378;27;20044;-80
2023/12/23 08:11:18;;;;;;;7.70;2.70;;;;;;;23.47;71.08;100714.84;10549229;28;20453;-78
2023/12/23 08:16:42;;;;;;;10.32;2.20;;;;;;;22.58;81.34;100706.38;10590793;27;20047;-80
2023/12/23 08:22:06;;;;;;;7.32;3.05;;;;;;;23.42;76.65;100714.13;10607674;27;20055;-81
2023/12/23 08:27:28;;;;;;;4.63;2.00;;;;;;;25.76;57.95;100723.91;10606241;27;20044;-80
2023/12/23 08:32:52;;;;;;;9.18;3.67;;;;;;;27.15;50.89;100728.63;10593262;27;20051;-80
2023/12/23 08:38:15;;;;;;;7.63;3.20;;;;;;;27.63;47.40;100725.13;10606291;27;20610;-81
2023/12/23 08:43:37;;;;;;;7.63;4.55;;;;;;;29.19;42.99;100717.69;10592878;27;20046;-81
2023/12/23 08:49:01;;;;;;;6.18;4.68;;;;;;;28.33;45.26;100720.22;10592745;27;20051;-80
2023/12/23 08:54:24;;;;;;;8.35;3.63;;;;;;;29.50;42.06;100713.06;10589835;27;20066;-81
2023/12/23 08:59:46;;;;;;;10.02;3.25;;;;;;;31.60;39.35;100722.34;10588441;27;20051;-80
2023/12/23 09:05:11;;;;;;;8.23;4.45;;;;;;;32.65;36.50;100716.28;10590752;27;20104;-80
2023/12/23 09:10:33;;;;;;;9.25;3.30;;;;;;;32.86;35.51;100714.66;10583264;27;20063;-80
2023/12/23 09:15:56;;;;;;;9.10;4.22;;;;;;;33.39;34.01;100726.88;10560002;27;20054;-80
2023/12/23 09:21:20;;;;;;;6.55;2.72;;;;;;;34.12;33.38;100723.63;10576695;27;20047;-80
2023/12/23 09:26:43;;;;;;;6.82;2.70;;;;;;;34.10;32.15;100724.75;10580312;27;20058;-81
2023/12/23 09:32:05;;;;;;;8.60;3.45;;;;;;;34.19;31.48;100716.63;10570384;27;20043;-81
2023/12/23 09:37:30;;;;;;;5.03;2.80;;;;;;;34.31;31.17;100714.75;10573387;27;20121;-81
2023/12/23 09:42:52;;;;;;;6.68;3.17;;;;;;;33.27;31.59;100713.31;10577228;27;20146;-81
2023/12/23 09:48:14;;;;;;;7.57;2.80;;;;;;;33.35;31.87;100711.66;10558670;27;20047;-81
2023/12/23 09:53:39;;;;;;;4.55;2.55;;;;;;;33.40;31.61;100703.97;10562789;27;20176;-81
2023/12/23 09:59:01;;;;;;;4.78;2.15;;;;;;;33.69;31.39;100704.34;10583672;27;20059;-81
2023/12/23 10:04:24;;;;;;;6.70;2.20;;;;;;;33.80;30.53;100695.28;10575753;27;20104;-81
2023/12/23 10:09:50;;;;;;;7.60;2.13;;;;;;;33.07;31.48;100684.75;10588934;27;20054;-81
2023/12/23 10:15:13;;;;;;;6.50;2.95;;;;;;;32.41;31.70;100678.06;10599660;27;20059;-82
2023/12/23 10:20:35;;;;;;;3.85;2.08;;;;;;;32.30;31.61;100678.84;10565193;28;20104;-82
2023/12/23 10:26:00;;;;;;;9.20;1.95;;;;;;;31.15;33.38;100685.53;10588694;27;20341;-82
2023/12/23 10:31:25;;;;;;;8.02;2.10;;;;;;;31.44;33.24;100683.44;10591516;27;20047;-82
2023/12/23 10:36:49;;;;;;;9.75;3.65;;;;;;;31.26;33.03;100676.59;10570499;28;20053;-82
2023/12/23 10:42:20;;;;;;;8.73;2.65;;;;;;;31.00;32.89;100669.34;10599117;27;20057;-80
2023/12/23 10:47:43;;;;;;;7.43;2.45;;;;;;;31.15;32.53;100673.75;10599346;27;20540;-80
2023/12/23 10:53:09;;;;;;;6.15;2.15;;;;;;;30.61;32.93;100679.34;10570818;28;20054;-78
2023/12/23 10:58:36;;;;;;;6.93;2.50;;;;;;;30.44;33.30;100675.03;10554649;28;20423;-79
2023/12/23 11:04:01;;;;;;;6.50;2.15;;;;;;;30.18;33.83;100675.06;10565852;28;20545;-78
2023/12/23 11:09:24;;;;;;;3.83;1.55;;;;;;;29.57;33.29;100689.94;10571255;28;20100;-81
2023/12/23 11:14:49;;;;;;;6.43;2.88;;;;;;;28.94;34.21;100690.28;10573251;28;20044;-80
2023/12/23 11:20:51;;;;;;;9.05;4.03;;;;;;;28.44;35.47;100691.47;10526271;28;20066;-80
2023/12/23 11:26:44;;;;;;;6.38;2.88;;;;;;;28.17;36.14;100686.78;10550235;28;20099;-80
2023/12/23 11:32:15;;;;;;;13.05;5.30;;;;;;;28.01;37.29;100689.50;10559667;28;20044;-79
2023/12/23 11:38:02;;;;;;;6.05;2.35;;;;;;;27.43;36.37;100673.78;10538942;28;20093;-80
2023/12/23 11:43:24;;;;;;;6.20;2.85;;;;;;;27.20;38.06;100679.56;10362509;28;20068;-83
2023/12/23 11:48:49;;;;;;;8.48;3.10;;;;;;;26.48;39.25;100671.66;10380797;28;20099;-82
2023/12/23 11:54:13;;;;;;;9.20;2.67;;;;;;;25.75;41.21;100670.75;10420737;28;20049;-81
2023/12/23 11:59:35;;;;;;;10.30;3.67;;;;;;;25.27;42.41;100676.63;10416777;28;20068;-81
2023/12/23 12:04:59;;;;;;;7.10;2.17;;;;;;;24.88;43.66;100676.59;10429061;28;20041;-82
2023/12/23 12:10:23;;;;;;;9.05;2.97;;;;;;;24.86;44.71;100666.81;10433923;28;20048;-81
2023/12/23 12:15:45;;;;;;;8.13;3.33;;;;;;;24.69;43.78;100683.75;10430512;28;20048;-80
2023/12/23 12:21:09;;;;;;;7.47;4.82;;;;;;;24.54;44.62;100697.94;10605895;27;20055;-79
2023/12/23 12:26:32;;;;;;;6.00;2.80;;;;;;;24.17;45.20;100704.84;10586801;27;20095;-80
2023/12/23 12:31:57;;;;;;;5.90;1.77;;;;;;;23.68;48.23;100697.88;10606573;27;20082;-83
2023/12/23 12:37:21;;;;;;;8.80;2.33;;;;;;;23.10;52.18;100701.88;10597154;27;20369;-86
2023/12/23 12:42:47;;;;;;;9.23;3.67;;;;;;;22.61;58.71;100724.22;10591763;27;20055;-79
2023/12/23 12:48:10;;;;;;;6.97;2.42;;;;;;;22.15;65.40;100732.97;10587823;27;20504;-82
2023/12/23 12:53:37;;;;;;;8.73;3.05;;;;;;;22.01;69.03;100730.72;10597856;27;20070;-81
2023/12/23 12:59:00;;;;;;;4.68;1.50;;;;;;;21.85;70.33;100741.06;10587544;27;20049;-81
2023/12/23 13:04:22;;;;;;;15.70;5.78;;;;;;;21.71;72.85;100753.16;10575788;28;20047;-79
2023/12/23 13:09:46;;;;;;;4.72;2.10;;;;;;;21.62;75.44;100764.16;10605605;27;20039;-80
2023/12/23 13:15:10;;;;;;;11.73;2.17;;;;;;;21.44;76.82;100761.09;10567504;27;20051;-78
2023/12/23 13:20:32;;;;;;;7.30;2.00;;;;;;;21.19;80.71;100772.59;10621501;27;20055;-80
2023/12/23 13:25:56;;;;;;;6.57;3.13;;;;;;;21.08;82.46;100783.56;10587147;27;20043;-81
2023/12/23 13:31:18;;;;;;;13.57;3.80;;;;;;;20.92;85.23;100779.56;10572239;27;20091;-81
2023/12/23 13:36:41;;;;;;;8.05;2.58;;;;;;;20.75;88.87;100785.34;10590445;27;20050;-82
2023/12/23 13:42:05;;;;;;;7.88;2.75;;;;;;;20.58;91.23;100793.84;10589605;27;20100;-82
2023/12/23 13:47:27;;;;;;;6.10;2.78;;;;;;;20.44;93.00;100804.03;10589300;27;20485;-84
2023/12/23 13:52:51;;;;;;;14.20;9.45;;;;;;;20.34;93.48;100805.16;10604764;27;20047;-82
2023/12/23 13:58:16;;;;;;;10.50;3.20;;;;;;;20.14;96.65;100812.75;10578244;27;20046;-81
2023/12/23 14:03:38;;;;;;;8.20;3.75;;;;;;;19.96;99.22;100815.81;10605606;27;20388;-81
2023/12/23 14:09:03;;;;;;;12.50;2.80;;;;;;;19.74;100.00;100813.63;10555059;28;20146;-80
2023/12/23 14:14:27;;;;;;;6.40;2.33;;;;;;;19.53;100.00;100803.38;10564736;28;20489;-80
2023/12/23 14:19:49;;;;;;;9.20;2.80;;;;;;;19.36;100.00;100814.34;10589020;27;20051;-81
2023/12/23 14:25:12;;;;;;;8.75;2.92;;;;;;;19.06;100.00;100818.50;10599057;27;20046;-82
2023/12/23 14:30:36;;;;;;;10.98;3.50;;;;;;;18.87;100.00;100808.16;10575604;27;20408;-81
2023/12/23 14:35:58;;;;;;;10.82;3.20;;;;;;;18.69;100.00;100801.34;10581669;28;20054;-81
2023/12/23 14:41:21;;;;;;;13.02;3.28;;;;;;;18.44;100.00;100806.19;10587918;28;20565;-81
2023/12/23 14:46:46;;;;;;;21.73;10.50;;;;;;;18.22;100.00;100810.97;10590953;28;20403;-80
2023/12/23 14:52:09;;;;;;;19.27;12.77;;;;;;;18.01;100.00;100811.28;10590748;28;20469;-81
2023/12/23 14:57:32;;;;;;;16.05;6.85;;;;;;;17.79;100.00;100816.03;10590403;28;20043;-81
2023/12/23 15:02:56;;;;;;;10.23;2.80;;;;;;;17.46;100.00;100819.06;10602928;27;20104;-82
2023/12/23 15:08:18;;;;;;;21.40;10.05;;;;;;;17.34;100.00;100830.78;10599811;27;20119;-83
2023/12/23 15:13:40;;;;;;;28.58;20.45;;;;;;;17.25;100.00;100824.66;10611778;27;20039;-82
2023/12/23 15:19:04;;;;;;;29.95;18.27;;;;;;;16.96;100.00;100820.50;10599001;27;20069;-82
2023/12/23 15:24:27;;;;;;;19.98;10.35;;;;;;;16.71;100.00;100841.19;10580995;27;20120;-80
2023/12/23 15:29:49;;;;;;;15.93;8.95;;;;;;;16.22;100.00;100850.38;10608963;27;20678;-82
2023/12/23 15:35:13;;;;;;;17.48;6.00;;;;;;;16.15;100.00;100853.97;10597575;27;20042;-80
2023/12/23 15:40:36;;;;;;;11.50;6.43;;;;;;;16.12;100.00;100854.00;10610389;27;20087;-81
2023/12/23 15:45:58;;;;;;;13.32;5.10;;;;;;;15.58;100.00;100864.00;10597816;27;20238;-82
2023/12/23 15:51:23;;;;;;;45.50;18.58;;;;;;;15.36;100.00;100888.88;10595750;27;20127;-81
2023/12/23 15:56:45;;;;;;;21.65;9.77;;;;;;;15.22;100.00;100902.19;10607240;27;20155;-81
2023/12/23 16:02:08;;;;;;;22.40;8.45;;;;;;;15.34;100.00;100907.47;10608411;27;20062;-80
2023/12/23 16:07:32;;;;;;;17.67;9.90;;;;;;;15.57;100.00;100911.88;10593770;27;20035;-81
2023/12/23 16:12:54;;;;;;;32.35;25.42;;;;;;;15.71;100.00;100921.63;10580215;27;20051;-81
2023/12/23 16:18:17;;;;;;;61.80;55.55;;;;;;;15.79;100.00;100930.47;10584083;27;20100;-82
2023/12/23 16:23:41;;;;;;;11.10;4.50;;;;;;;15.78;100.00;100934.00;10574268;27;20099;-80
2023/12/23 16:29:03;;;;;;;14.18;8.00;;;;;;;15.90;100.00;100949.94;10567765;27;20052;-80
2023/12/23 16:34:26;;;;;;;13.25;11.93;;;;;;;15.74;100.00;100955.34;10597862;27;20047;-80
2023/12/23 16:39:50;;;;;;;19.58;9.75;;;;;;;15.69;100.00;100962.41;10609055;27;20048;-80
2023/12/23 16:45:15;;;;;;;13.75;9.55;;;;;;;15.86;100.00;100969.50;10595328;27;20031;-80
2023/12/23 16:50:38;;;;;;;33.85;21.33;;;;;;;16.06;100.00;100979.19;10608721;27;20587;-81
2023/12/23 16:56:01;;;;;;;40.92;30.42;;;;;;;16.00;100.00;100985.44;10611738;27;20047;-81
2023/12/23 17:01:24;;;;;;;17.70;7.95;;;;;;;15.76;100.00;100986.34;10589648;27;20051;-81
2023/12/23 17:06:46;;;;;;;22.15;13.50;;;;;;;15.77;100.00;100965.94;10577681;27;20104;-80
2023/12/23 17:12:10;;;;;;;18.98;11.55;;;;;;;15.29;100.00;100983.75;10599324;27;20134;-82
2023/12/23 17:17:33;;;;;;;62.88;40.72;;;;;;;15.07;100.00;100992.59;10592093;27;20038;-78
2023/12/23 17:22:55;;;;;;;31.02;22.25;;;;;;;14.77;100.00;100993.41;10585210;27;20047;-80
2023/12/23 17:28:19;;;;;;;14.57;10.95;;;;;;;14.64;100.00;101002.22;10589632;27;20038;-80
2023/12/23 17:33:42;;;;;;;21.08;11.65;;;;;;;14.60;100.00;101006.66;10590740;27;20046;-80
2023/12/23 17:39:05;;;;;;;20.25;7.32;;;;;;;14.47;100.00;101007.50;10580939;27;20043;-79
2023/12/23 17:44:29;;;;;;;24.75;15.48;;;;;;;14.45;100.00;101005.72;10591175;27;20035;-80
2023/12/23 17:49:52;;;;;;;21.25;12.40;;;;;;;14.14;100.00;101015.28;10585410;27;20051;-80
2023/12/23 17:55:15;;;;;;;33.25;16.35;;;;;;;13.95;100.00;101024.94;10581534;27;20059;-80
2023/12/23 18:00:39;;;;;;;37.45;28.13;;;;;;;14.00;100.00;101033.78;10580276;27;20047;-80
2023/12/23 18:06:01;;;;;;;44.75;35.42;;;;;;;13.80;100.00;101030.13;10587588;27;20035;-83
2023/12/23 18:11:24;;;;;;;20.73;9.77;;;;;;;13.68;100.00;101030.03;10577385;27;20500;-80
2023/12/23 18:16:48;;;;;;;30.25;18.08;;;;;;;13.67;100.00;101041.53;10587066;27;20047;-82
2023/12/23 18:22:10;;;;;;;25.42;13.05;;;;;;;13.66;100.00;101042.41;10604145;27;20054;-81
2023/12/23 18:27:33;;;;;;;14.85;5.60;;;;;;;13.56;100.00;101045.00;10598272;27;20089;-79
2023/12/23 18:32:57;;;;;;;20.92;10.13;;;;;;;13.53;100.00;101042.31;10595702;27;20055;-83
2023/12/23 18:38:20;;;;;;;40.17;26.95;;;;;;;13.56;100.00;101046.75;10603486;27;20043;-80
2023/12/23 18:43:42;;;;;;;24.20;15.00;;;;;;;13.45;100.00;101049.34;10603336;28;20416;-83
2023/12/23 18:49:06;;;;;;;34.08;24.73;;;;;;;13.35;100.00;101039.50;10568618;27;20051;-88
2023/12/23 18:54:28;;;;;;;15.32;7.60;;;;;;;13.42;100.00;101041.34;10572353;28;20035;-83
2023/12/23 18:59:51;;;;;;;22.80;14.13;;;;;;;13.27;100.00;101043.84;10609876;28;20050;-82
2023/12/23 19:05:16;;;;;;;122.90;87.13;;;;;;;13.25;100.00;101053.59;10605318;28;20058;-84
2023/12/23 19:10:42;;;;;;;66.78;49.65;;;;;;;13.37;100.00;101044.84;10587416;28;20075;-85
2023/12/23 19:16:09;;;;;;;16.25;7.90;;;;;;;13.36;100.00;101051.91;10589182;28;20055;-79
2023/12/23 19:21:40;;;;;;;22.98;10.90;;;;;;;13.25;100.00;101061.53;10565509;27;20043;-82
2023/12/23 19:27:02;;;;;;;21.63;12.25;;;;;;;13.04;100.00;101059.53;10588193;28;20039;-82
2023/12/23 19:32:25;;;;;;;37.50;21.40;;;;;;;12.89;100.00;101061.09;10600722;28;20146;-81
2023/12/23 19:37:48;;;;;;;31.27;18.52;;;;;;;12.99;100.00;101057.69;10586180;27;20115;-83
2023/12/23 19:43:11;;;;;;;22.88;8.73;;;;;;;13.04;100.00;101071.88;10582388;28;20489;-85
2023/12/23 19:48:34;;;;;;;9.82;4.18;;;;;;;12.93;100.00;101069.09;10564373;27;20565;-82
2023/12/23 19:53:59;;;;;;;18.67;9.43;;;;;;;12.82;100.00;101077.81;10598081;27;20057;-81
2023/12/23 19:59:21;;;;;;;23.00;11.23;;;;;;;12.61;100.00;101079.31;10597956;27;20039;-82
2023/12/23 20:04:43;;;;;;;33.80;22.83;;;;;;;12.63;100.00;101074.06;10607803;27;20060;-81
2023/12/23 20:10:09;;;;;;;30.58;23.45;;;;;;;12.69;100.00;101074.13;10610363;27;20074;-82
2023/12/23 20:15:31;;;;;;;24.25;14.68;;;;;;;12.64;100.00;101052.88;10610401;27;20049;-82
2023/12/23 20:20:54;;;;;;;24.38;12.57;;;;;;;12.56;100.00;101046.59;10597055;27;20047;-80
2023/12/23 20:26:19;;;;;;;40.17;32.28;;;;;;;12.37;100.00;101055.19;10593567;27;20051;-81
2023/12/23 20:31:41;;;;;;;5.35;2.92;;;;;;;12.36;100.00;101059.59;10607154;27;20518;-81
2023/12/23 20:37:07;;;;;;;23.98;15.98;;;;;;;12.48;100.00;101053.56;10585736;27;20050;-80
2023/12/23 20:42:31;;;;;;;9.07;5.63;;;;;;;12.22;100.00;101044.41;10588003;27;20049;-81
2023/12/23 20:47:53;;;;;;;12.70;7.45;;;;;;;12.04;100.00;101052.09;10604454;27;20051;-81
2023/12/23 20:53:16;;;;;;;26.63;17.58;;;;;;;12.06;100.00;101060.94;10601543;27;20055;-81
2023/12/23 20:58:40;;;;;;;5.85;2.65;;;;;;;12.04;100.00;101060.03;10587008;27;20046;-83
2023/12/23 21:04:03;;;;;;;5.10;3.10;;;;;;;12.64;100.00;101062.59;10584963;27;20050;-80
2023/12/23 21:09:26;;;;;;;6.75;4.05;;;;;;;12.78;100.00;101061.00;10574269;27;20047;-79
2023/12/23 21:14:50;;;;;;;5.28;3.63;;;;;;;12.54;100.00;101061.56;10600841;27;20036;-80
2023/12/23 21:20:12;;;;;;;8.70;3.03;;;;;;;12.66;100.00;101077.66;10604867;27;20111;-81
2023/12/23 21:25:35;;;;;;;2.95;1.70;;;;;;;12.57;100.00;101069.56;10603949;27;20084;-82
2023/12/23 21:31:01;;;;;;;3.08;1.52;;;;;;;12.55;100.00;101070.41;10586272;27;20046;-82
2023/12/23 21:36:23;;;;;;;4.97;1.92;;;;;;;12.21;100.00;101074.38;10590266;27;20044;-81
2023/12/23 21:41:47;;;;;;;4.32;2.15;;;;;;;11.92;100.00;101071.31;10605068;27;20058;-82
2023/12/23 21:47:12;;;;;;;21.05;7.65;;;;;;;11.78;100.00;101067.56;10562285;28;20040;-83
2023/12/23 21:52:35;;;;;;;13.25;5.75;;;;;;;11.69;100.00;101059.44;10533802;28;20497;-82
2023/12/23 21:57:57;;;;;;;10.93;3.85;;;;;;;11.62;100.00;101057.59;10534524;28;20044;-83
2023/12/23 22:03:25;;;;;;;35.80;12.15;;;;;;;11.65;100.00;101066.47;10544545;28;20043;-83
2023/12/23 22:08:49;;;;;;;44.67;16.08;;;;;;;11.67;100.00;101074.44;10561879;28;20048;-82
2023/12/23 22:14:12;;;;;;;22.95;8.57;;;;;;;11.68;100.00;101074.47;10575785;28;20055;-82
2023/12/23 22:19:38;;;;;;;8.10;2.75;;;;;;;11.65;100.00;101071.75;10561609;28;20092;-81
2023/12/23 22:25:00;;;;;;;16.40;6.75;;;;;;;11.68;100.00;101066.53;10561308;28;20051;-82
2023/12/23 22:30:23;;;;;;;6.88;3.05;;;;;;;11.48;100.00;101068.84;10533882;28;20043;-82
2023/12/23 22:35:47;;;;;;;3.83;2.25;;;;;;;11.55;100.00;101064.56;10573469;28;20040;-82
2023/12/23 22:41:10;;;;;;;6.72;2.40;;;;;;;11.68;100.00;101066.53;10573943;28;20056;-83
2023/12/23 22:46:32;;;;;;;6.57;2.10;;;;;;;11.70;100.00;101053.28;10560927;28;20300;-83
2023/12/23 22:51:57;;;;;;;5.03;1.95;;;;;;;11.77;100.00;101053.47;10560184;28;20056;-83
2023/12/23 22:57:19;;;;;;;6.32;1.80;;;;;;;11.75;100.00;101052.53;10575329;28;20060;-84
2023/12/23 23:02:42;;;;;;;23.88;9.98;;;;;;;11.70;100.00;101059.47;10532769;28;20048;-83
2023/12/23 23:08:07;;;;;;;25.30;10.02;;;;;;;11.72;100.00;101060.41;10519104;28;20097;-84
2023/12/23 23:13:30;;;;;;;10.55;5.10;;;;;;;11.69;100.00;101067.38;10532407;28;20134;-83
2023/12/23 23:18:53;;;;;;;22.58;9.40;;;;;;;11.63;100.00;101073.47;10518535;28;20059;-82
2023/12/23 23:24:17;;;;;;;12.77;5.30;;;;;;;11.72;100.00;101073.63;10549167;28;20048;-83
2023/12/23 23:29:40;;;;;;;13.20;5.32;;;;;;;11.78;100.00;101068.47;10562622;28;20400;-83
2023/12/23 23:35:03;;;;;;;8.45;3.17;;;;;;;11.75;100.00;101064.91;10582088;28;20052;-82
2023/12/23 23:40:27;;;;;;;12.70;3.58;;;;;;;11.73;100.00;101053.38;10581551;28;20134;-83
2023/12/23 23:45:52;;;;;;;9.00;3.35;;;;;;;11.77;100.00;101060.50;10581636;28;20040;-84
2023/12/23 23:51:19;;;;;;;21.00;7.25;;;;;;;11.85;100.00;101062.41;10534899;28;20040;-83
2023/12/23 23:56:43;;;;;;;16.77;3.67;;;;;;;11.80;100.00;101057.91;10559790;27;20062;-82
